レイキャビク/ケフラヴィーク の空港の天気 - METARとTAF

ケフラヴィーク国際空港 ( BIKF / KEF ) - アイスランド ケプラヴィーク
飛行場実況気象(Metar)
観測時間01/20 17:30 GMT (01/20 17:30 UTC)
風向・風速南 12m/s 瞬間風速19m/s
視程10km以上
天気現象周辺でしゅう雨
少しの雲 雲底高度 640m
全天の8割程度の雲 雲底高度 2440m
気温4℃
湿度87%
気圧1001hPa
METARBIKF 201730Z 17024G37KT 9999 VCSH FEW021CB BKN080 04/02 Q1001 RESHGS
過去の天気等 Google飛行場航空写真 Wunderground天気予報

過去48時間のMETAR

飛行場予報(TAF)
発表時間: 1/20 16:30 GMT (1/20 16:30 UTC)
予報対象時間: 20日18時 GMT ~ 21日18時 GMT
風向・風速南 13m/s
視程10km以上
天気現象しゅう雨
全天の4割程度の雲 雲底高度 460m
全天の8割程度の雲 雲底高度 760m
20日18時 GMT ~ 21日12時 GMT に一時的に
風向・風速南 14m/s 瞬間風速 22m/s
視程4,000m
天気現象しゅう雨 もや
全天の8割程度の積乱雲 雲底高度 300m
21日10時 GMT ~ 21日12時 GMT に徐々に
風向・風速南西 10m/s
21日12時 GMT ~ 21日18時 GMT に一時的に
風向・風速南西 10m/s 瞬間風速 15m/s
視程4,000m
天気現象しゅう雨
全天の8割程度の積乱雲 雲底高度 300m
TAF BIKF 201630Z 2018/2118 17026KT 9999 SHRA SCT015 BKN025 TX06/2018Z TN03/2118Z
TEMPO 2018/2112 17028G43KT 4000 SHRA BR BKN010CB
BECMG 2110/2112 23020KT
TEMPO 2112/2118 23020G30KT 4000 SHRA BKN010CB